sensor_id;sensor_type;location;lat;lon;timestamp;pressure;altitude;pressure_sealevel;temperature;humidity
79136;BME280;68533;51.090;17.216;2023-05-10T00:02:16;100264.78;;;7.45;60.68
79136;BME280;68533;51.090;17.216;2023-05-10T00:04:43;100267.75;;;7.44;61.32
79136;BME280;68533;51.090;17.216;2023-05-10T00:07:09;100262.53;;;7.37;60.84
79136;BME280;68533;51.090;17.216;2023-05-10T00:09:36;100264.97;;;7.28;62.08
79136;BME280;68533;51.090;17.216;2023-05-10T00:12:01;100257.88;;;7.32;60.90
79136;BME280;68533;51.090;17.216;2023-05-10T00:14:28;100260.06;;;7.35;61.77
79136;BME280;68533;51.090;17.216;2023-05-10T00:16:53;100257.31;;;7.30;61.48
79136;BME280;68533;51.090;17.216;2023-05-10T00:19:19;100255.41;;;7.31;61.30
79136;BME280;68533;51.090;17.216;2023-05-10T00:21:45;100246.63;;;7.24;61.62
79136;BME280;68533;51.090;17.216;2023-05-10T00:24:12;100258.63;;;7.18;62.03
79136;BME280;68533;51.090;17.216;2023-05-10T00:26:38;100262.69;;;7.10;62.53
79136;BME280;68533;51.090;17.216;2023-05-10T00:29:04;100256.91;;;7.07;63.01
79136;BME280;68533;51.090;17.216;2023-05-10T00:31:30;100256.91;;;7.07;62.99
79136;BME280;68533;51.090;17.216;2023-05-10T00:33:56;100255.31;;;7.11;62.21
79136;BME280;68533;51.090;17.216;2023-05-10T00:36:22;100251.13;;;6.98;63.47
79136;BME280;68533;51.090;17.216;2023-05-10T00:38:48;100260.47;;;7.02;63.50
79136;BME280;68533;51.090;17.216;2023-05-10T00:41:14;100255.00;;;7.02;62.66
79136;BME280;68533;51.090;17.216;2023-05-10T00:43:41;100249.47;;;6.97;63.38
79136;BME280;68533;51.090;17.216;2023-05-10T00:46:07;100248.94;;;6.95;63.06
79136;BME280;68533;51.090;17.216;2023-05-10T00:48:34;100254.69;;;6.98;64.21
79136;BME280;68533;51.090;17.216;2023-05-10T00:51:01;100250.78;;;6.89;63.98
79136;BME280;68533;51.090;17.216;2023-05-10T00:53:28;100243.13;;;6.81;64.33
79136;BME280;68533;51.090;17.216;2023-05-10T00:55:56;100247.22;;;6.84;63.89
79136;BME280;68533;51.090;17.216;2023-05-10T00:58:22;100236.22;;;6.74;64.74
79136;BME280;68533;51.090;17.216;2023-05-10T01:03:25;100237.34;;;6.78;64.38
79136;BME280;68533;51.090;17.216;2023-05-10T01:05:51;100244.69;;;6.72;64.81
79136;BME280;68533;51.090;17.216;2023-05-10T01:08:19;100243.56;;;6.68;64.96
79136;BME280;68533;51.090;17.216;2023-05-10T01:10:46;100239.00;;;6.79;64.51
79136;BME280;68533;51.090;17.216;2023-05-10T01:13:28;100236.75;;;6.71;65.02
79136;BME280;68533;51.090;17.216;2023-05-10T01:15:57;100235.44;;;6.78;64.65
79136;BME280;68533;51.090;17.216;2023-05-10T01:18:23;100239.00;;;6.79;64.51
79136;BME280;68533;51.090;17.216;2023-05-10T01:37:21;100233.16;;;6.28;66.41
79136;BME280;68533;51.090;17.216;2023-05-10T01:39:50;100233.66;;;6.25;67.01
79136;BME280;68533;51.090;17.216;2023-05-10T01:42:24;100243.53;;;6.31;66.98
79136;BME280;68533;51.090;17.216;2023-05-10T01:48:08;100232.00;;;6.24;66.76
79136;BME280;68533;51.090;17.216;2023-05-10T01:50:37;100232.69;;;6.36;66.44
79136;BME280;68533;51.090;17.216;2023-05-10T01:53:07;100235.94;;;6.38;65.78
79136;BME280;68533;51.090;17.216;2023-05-10T01:55:38;100233.81;;;6.45;66.10
79136;BME280;68533;51.090;17.216;2023-05-10T01:58:13;100224.00;;;6.44;66.14
79136;BME280;68533;51.090;17.216;2023-05-10T02:00:42;100229.72;;;6.43;66.24
79136;BME280;68533;51.090;17.216;2023-05-10T02:03:08;100225.09;;;6.43;66.25
79136;BME280;68533;51.090;17.216;2023-05-10T02:05:36;100225.59;;;6.40;66.65
79136;BME280;68533;51.090;17.216;2023-05-10T02:08:05;100218.22;;;6.41;66.22
79136;BME280;68533;51.090;17.216;2023-05-10T02:10:34;100221.19;;;6.34;66.40
79136;BME280;68533;51.090;17.216;2023-05-10T02:13:02;100216.28;;;6.36;66.47
79136;BME280;68533;51.090;17.216;2023-05-10T02:15:28;100218.72;;;6.38;66.42
79136;BME280;68533;51.090;17.216;2023-05-10T02:17:57;100219.31;;;6.40;66.10
79136;BME280;68533;51.090;17.216;2023-05-10T02:20:24;100213.56;;;6.36;66.66
79136;BME280;68533;51.090;17.216;2023-05-10T02:22:53;100211.13;;;6.40;66.26
79136;BME280;68533;51.090;17.216;2023-05-10T02:25:20;100211.69;;;6.42;66.50
79136;BME280;68533;51.090;17.216;2023-05-10T02:27:48;100202.34;;;6.38;66.19
79136;BME280;68533;51.090;17.216;2023-05-10T02:30:15;100209.78;;;6.42;65.88
79136;BME280;68533;51.090;17.216;2023-05-10T02:32:42;100211.44;;;6.48;65.95
79136;BME280;68533;51.090;17.216;2023-05-10T02:35:10;100209.56;;;6.54;65.76
79136;BME280;68533;51.090;17.216;2023-05-10T02:37:38;100218.03;;;6.52;65.77
79136;BME280;68533;51.090;17.216;2023-05-10T02:40:06;100208.81;;;6.58;65.48
79136;BME280;68533;51.090;17.216;2023-05-10T02:42:36;100211.56;;;6.63;65.28
79136;BME280;68533;51.090;17.216;2023-05-10T02:45:04;100210.97;;;6.56;65.63
79136;BME280;68533;51.090;17.216;2023-05-10T02:47:31;100214.28;;;6.58;65.39
79136;BME280;68533;51.090;17.216;2023-05-10T02:49:57;100206.84;;;6.54;65.17
79136;BME280;68533;51.090;17.216;2023-05-10T02:52:28;100209.28;;;6.50;65.84
79136;BME280;68533;51.090;17.216;2023-05-10T02:54:56;100209.28;;;6.50;66.34
79136;BME280;68533;51.090;17.216;2023-05-10T02:57:31;100207.63;;;6.44;65.74
79136;BME280;68533;51.090;17.216;2023-05-10T03:00:00;100217.50;;;6.50;65.69
79136;BME280;68533;51.090;17.216;2023-05-10T03:02:27;100213.63;;;6.46;65.86
79136;BME280;68533;51.090;17.216;2023-05-10T03:04:53;100214.75;;;6.50;65.63
79136;BME280;68533;51.090;17.216;2023-05-10T03:07:19;100208.38;;;6.40;66.51
79136;BME280;68533;51.090;17.216;2023-05-10T03:09:50;100217.41;;;6.40;66.29
79136;BME280;68533;51.090;17.216;2023-05-10T03:15:05;100216.53;;;6.30;66.12
79136;BME280;68533;51.090;17.216;2023-05-10T03:17:56;100222.84;;;6.35;66.11
79136;BME280;68533;51.090;17.216;2023-05-10T03:20:29;100216.28;;;6.36;66.65
79136;BME280;68533;51.090;17.216;2023-05-10T03:23:04;100221.41;;;6.28;66.37
79136;BME280;68533;51.090;17.216;2023-05-10T03:25:34;100218.94;;;6.26;66.61
79136;BME280;68533;51.090;17.216;2023-05-10T03:28:03;100219.75;;;6.27;66.54
79136;BME280;68533;51.090;17.216;2023-05-10T03:30:30;100218.09;;;6.26;67.22
79136;BME280;68533;51.090;17.216;2023-05-10T03:33:05;100219.97;;;6.20;66.88
79136;BME280;68533;51.090;17.216;2023-05-10T03:35:31;100215.59;;;6.19;66.94
79136;BME280;68533;51.090;17.216;2023-05-10T03:37:59;100212.88;;;6.19;67.35
79136;BME280;68533;51.090;17.216;2023-05-10T03:40:26;100212.28;;;6.17;67.64
79136;BME280;68533;51.090;17.216;2023-05-10T03:42:55;100215.03;;;6.17;67.07
79136;BME280;68533;51.090;17.216;2023-05-10T03:45:21;100213.69;;;6.19;66.66
79136;BME280;68533;51.090;17.216;2023-05-10T03:47:47;100219.66;;;6.16;67.12
79136;BME280;68533;51.090;17.216;2023-05-10T03:50:13;100210.59;;;6.11;67.52
79136;BME280;68533;51.090;17.216;2023-05-10T03:52:42;100212.00;;;6.13;67.10
79136;BME280;68533;51.090;17.216;2023-05-10T03:55:09;100207.09;;;6.15;68.28
79136;BME280;68533;51.090;17.216;2023-05-10T03:57:35;100217.22;;;6.15;67.85
79136;BME280;68533;51.090;17.216;2023-05-10T04:00:02;100214.72;;;6.13;67.74
79136;BME280;68533;51.090;17.216;2023-05-10T04:02:29;100205.25;;;6.21;67.49
79136;BME280;68533;51.090;17.216;2023-05-10T04:04:56;100199.78;;;6.21;68.02
79136;BME280;68533;51.090;17.216;2023-05-10T04:07:22;100212.03;;;6.18;67.38
79136;BME280;68533;51.090;17.216;2023-05-10T04:09:48;100205.53;;;6.24;67.35
79136;BME280;68533;51.090;17.216;2023-05-10T04:12:14;100212.97;;;6.29;67.74
79136;BME280;68533;51.090;17.216;2023-05-10T04:14:42;100207.03;;;6.37;67.36
79136;BME280;68533;51.090;17.216;2023-05-10T04:17:09;100209.81;;;6.52;67.13
79136;BME280;68533;51.090;17.216;2023-05-10T04:19:34;100206.91;;;6.64;66.09
79136;BME280;68533;51.090;17.216;2023-05-10T04:22:02;100217.63;;;6.76;66.23
79136;BME280;68533;51.090;17.216;2023-05-10T04:24:28;100212.31;;;6.96;65.52
79136;BME280;68533;51.090;17.216;2023-05-10T04:26:55;100206.16;;;7.31;64.40
79136;BME280;68533;51.090;17.216;2023-05-10T04:29:21;100207.06;;;7.52;63.82
79136;BME280;68533;51.090;17.216;2023-05-10T04:31:47;100203.31;;;7.78;63.02
79136;BME280;68533;51.090;17.216;2023-05-10T04:34:14;100209.09;;;8.12;61.75
79136;BME280;68533;51.090;17.216;2023-05-10T04:36:41;100212.94;;;8.21;61.53
79136;BME280;68533;51.090;17.216;2023-05-10T04:39:08;100205.78;;;8.25;60.68
79136;BME280;68533;51.090;17.216;2023-05-10T04:41:37;100202.81;;;8.32;60.97
79136;BME280;68533;51.090;17.216;2023-05-10T04:44:03;100208.84;;;8.49;61.24
79136;BME280;68533;51.090;17.216;2023-05-10T04:46:30;100211.56;;;8.64;60.08
79136;BME280;68533;51.090;17.216;2023-05-10T04:48:56;100202.50;;;8.69;60.21
79136;BME280;68533;51.090;17.216;2023-05-10T04:51:22;100212.59;;;8.83;59.06
79136;BME280;68533;51.090;17.216;2023-05-10T04:53:48;100213.41;;;8.99;58.64
79136;BME280;68533;51.090;17.216;2023-05-10T04:56:14;100208.41;;;9.16;58.15
79136;BME280;68533;51.090;17.216;2023-05-10T04:58:40;100215.72;;;9.36;57.46
79136;BME280;68533;51.090;17.216;2023-05-10T05:01:07;100213.94;;;9.65;57.45
79136;BME280;68533;51.090;17.216;2023-05-10T05:03:36;100214.44;;;9.78;56.01
79136;BME280;68533;51.090;17.216;2023-05-10T05:06:03;100207.34;;;9.66;56.27
79136;BME280;68533;51.090;17.216;2023-05-10T05:08:29;100210.63;;;10.12;55.74
79136;BME280;68533;51.090;17.216;2023-05-10T05:10:55;100208.09;;;10.16;54.70
79136;BME280;68533;51.090;17.216;2023-05-10T05:13:24;100210.06;;;10.49;55.08
79136;BME280;68533;51.090;17.216;2023-05-10T05:15:50;100209.59;;;10.42;54.73
79136;BME280;68533;51.090;17.216;2023-05-10T05:18:17;100200.19;;;10.48;52.85
79136;BME280;68533;51.090;17.216;2023-05-10T05:20:43;100206.59;;;10.68;52.96
79136;BME280;68533;51.090;17.216;2023-05-10T05:23:09;100205.75;;;10.67;52.76
79136;BME280;68533;51.090;17.216;2023-05-10T05:25:35;100203.22;;;10.76;51.55
79136;BME280;68533;51.090;17.216;2023-05-10T05:28:10;100211.44;;;10.81;52.68
79136;BME280;68533;51.090;17.216;2023-05-10T05:30:38;100191.09;;;10.77;51.62
79136;BME280;68533;51.090;17.216;2023-05-10T05:33:06;100185.38;;;10.73;51.41
79136;BME280;68533;51.090;17.216;2023-05-10T05:35:33;100209.66;;;10.90;51.58
79136;BME280;68533;51.090;17.216;2023-05-10T05:38:01;100201.38;;;10.95;51.69
79136;BME280;68533;51.090;17.216;2023-05-10T05:40:31;100203.22;;;11.00;50.96
79136;BME280;68533;51.090;17.216;2023-05-10T05:42:57;100211.56;;;10.95;53.31
79136;BME280;68533;51.090;17.216;2023-05-10T05:45:24;100212.13;;;11.15;51.56
79136;BME280;68533;51.090;17.216;2023-05-10T05:47:50;100192.56;;;11.41;50.61
79136;BME280;68533;51.090;17.216;2023-05-10T05:50:16;100200.00;;;11.40;50.20
79136;BME280;68533;51.090;17.216;2023-05-10T05:52:42;100199.66;;;11.47;50.44
79136;BME280;68533;51.090;17.216;2023-05-10T05:55:08;100209.63;;;11.61;51.23
79136;BME280;68533;51.090;17.216;2023-05-10T05:57:35;100204.28;;;11.70;50.04
79136;BME280;68533;51.090;17.216;2023-05-10T06:00:01;100205.44;;;12.07;50.29
79136;BME280;68533;51.090;17.216;2023-05-10T06:02:28;100205.44;;;11.88;49.58
79136;BME280;68533;51.090;17.216;2023-05-10T06:04:56;100204.66;;;12.20;50.20
79136;BME280;68533;51.090;17.216;2023-05-10T06:07:22;100214.94;;;12.33;48.67
79136;BME280;68533;51.090;17.216;2023-05-10T06:09:48;100211.59;;;12.36;48.79
79136;BME280;68533;51.090;17.216;2023-05-10T06:12:15;100212.50;;;12.77;48.64
79136;BME280;68533;51.090;17.216;2023-05-10T06:14:40;100204.91;;;12.69;48.96
79136;BME280;68533;51.090;17.216;2023-05-10T06:17:11;100215.03;;;13.20;47.42
79136;BME280;68533;51.090;17.216;2023-05-10T06:19:36;100213.50;;;13.55;47.32
79136;BME280;68533;51.090;17.216;2023-05-10T06:22:03;100211.47;;;13.33;46.65
79136;BME280;68533;51.090;17.216;2023-05-10T06:24:29;100214.06;;;13.66;45.44
79136;BME280;68533;51.090;17.216;2023-05-10T06:26:55;100218.59;;;13.34;46.74
79136;BME280;68533;51.090;17.216;2023-05-10T06:29:21;100209.28;;;13.93;46.04
79136;BME280;68533;51.090;17.216;2023-05-10T06:31:48;100202.59;;;14.44;44.27
79136;BME280;68533;51.090;17.216;2023-05-10T06:34:13;100204.72;;;14.47;44.95
79136;BME280;68533;51.090;17.216;2023-05-10T06:36:41;100198.97;;;14.21;44.45
79136;BME280;68533;51.090;17.216;2023-05-10T06:39:07;100196.69;;;14.23;44.71
79136;BME280;68533;51.090;17.216;2023-05-10T06:41:33;100196.56;;;13.84;44.85
79136;BME280;68533;51.090;17.216;2023-05-10T06:43:59;100195.09;;;14.22;44.50
79136;BME280;68533;51.090;17.216;2023-05-10T06:46:25;100204.59;;;14.74;44.06
79136;BME280;68533;51.090;17.216;2023-05-10T06:48:51;100212.03;;;14.96;43.79
79136;BME280;68533;51.090;17.216;2023-05-10T06:51:17;100201.88;;;14.92;43.63
79136;BME280;68533;51.090;17.216;2023-05-10T06:53:45;100206.59;;;15.22;43.01
79136;BME280;68533;51.090;17.216;2023-05-10T06:56:11;100206.84;;;15.03;43.05
79136;BME280;68533;51.090;17.216;2023-05-10T06:58:37;100200.44;;;15.34;42.67
79136;BME280;68533;51.090;17.216;2023-05-10T07:01:04;100201.03;;;15.79;43.00
79136;BME280;68533;51.090;17.216;2023-05-10T07:03:31;100202.72;;;15.97;42.47
79136;BME280;68533;51.090;17.216;2023-05-10T07:06:01;100191.75;;;15.75;40.76
79136;BME280;68533;51.090;17.216;2023-05-10T07:08:31;100198.13;;;16.44;41.31
79136;BME280;68533;51.090;17.216;2023-05-10T07:11:04;100194.84;;;16.51;40.71
79136;BME280;68533;51.090;17.216;2023-05-10T07:13:31;100185.38;;;16.60;39.47
79136;BME280;68533;51.090;17.216;2023-05-10T07:15:58;100191.78;;;15.92;41.56
79136;BME280;68533;51.090;17.216;2023-05-10T07:18:25;100190.34;;;17.01;40.25
79136;BME280;68533;51.090;17.216;2023-05-10T07:20:51;100198.84;;;17.34;39.60
79136;BME280;68533;51.090;17.216;2023-05-10T07:23:17;100189.94;;;16.56;40.93
79136;BME280;68533;51.090;17.216;2023-05-10T07:25:51;100201.78;;;17.00;41.48
79136;BME280;68533;51.090;17.216;2023-05-10T07:28:19;100187.06;;;17.37;40.08
79136;BME280;68533;51.090;17.216;2023-05-10T07:30:47;100192.41;;;17.13;39.12
79136;BME280;68533;51.090;17.216;2023-05-10T07:33:16;100185.88;;;17.47;40.12
79136;BME280;68533;51.090;17.216;2023-05-10T07:35:42;100188.69;;;17.09;39.27
79136;BME280;68533;51.090;17.216;2023-05-10T07:38:08;100176.91;;;16.48;41.21
79136;BME280;68533;51.090;17.216;2023-05-10T07:40:37;100191.00;;;17.36;40.64
79136;BME280;68533;51.090;17.216;2023-05-10T07:43:03;100174.19;;;17.33;41.61
79136;BME280;68533;51.090;17.216;2023-05-10T07:45:29;100176.56;;;17.72;38.54
79136;BME280;68533;51.090;17.216;2023-05-10T07:47:55;100185.00;;;17.26;40.99
79136;BME280;68533;51.090;17.216;2023-05-10T07:50:22;100175.56;;;17.98;39.49
79136;BME280;68533;51.090;17.216;2023-05-10T07:52:48;100171.16;;;17.76;40.39
79136;BME280;68533;51.090;17.216;2023-05-10T07:55:14;100154.19;;;18.10;38.34
79136;BME280;68533;51.090;17.216;2023-05-10T07:57:42;100167.00;;;17.61;40.94
79136;BME280;68533;51.090;17.216;2023-05-10T08:00:08;100176.00;;;17.29;41.49
79136;BME280;68533;51.090;17.216;2023-05-10T08:02:35;100179.63;;;18.21;39.22
79136;BME280;68533;51.090;17.216;2023-05-10T08:05:01;100169.78;;;17.61;40.30
79136;BME280;68533;51.090;17.216;2023-05-10T08:07:30;100170.69;;;17.74;41.45
79136;BME280;68533;51.090;17.216;2023-05-10T08:09:57;100162.66;;;17.43;41.63
79136;BME280;68533;51.090;17.216;2023-05-10T08:12:23;100178.09;;;17.70;40.31
79136;BME280;68533;51.090;17.216;2023-05-10T08:14:51;100162.59;;;18.02;40.35
79136;BME280;68533;51.090;17.216;2023-05-10T08:17:17;100164.53;;;17.60;40.41
79136;BME280;68533;51.090;17.216;2023-05-10T08:19:44;100152.09;;;17.66;41.49
79136;BME280;68533;51.090;17.216;2023-05-10T08:22:10;100150.81;;;17.84;41.48
79136;BME280;68533;51.090;17.216;2023-05-10T08:24:36;100145.84;;;17.90;40.55
79136;BME280;68533;51.090;17.216;2023-05-10T08:27:05;100159.91;;;17.93;40.77
79136;BME280;68533;51.090;17.216;2023-05-10T08:29:31;100153.75;;;18.53;39.21
79136;BME280;68533;51.090;17.216;2023-05-10T08:31:57;100140.28;;;18.10;39.99
79136;BME280;68533;51.090;17.216;2023-05-10T08:34:23;100157.63;;;18.28;40.46
79136;BME280;68533;51.090;17.216;2023-05-10T08:36:51;100147.22;;;17.63;40.91
79136;BME280;68533;51.090;17.216;2023-05-10T08:39:18;100151.88;;;17.41;41.17
79136;BME280;68533;51.090;17.216;2023-05-10T08:41:45;100146.13;;;17.76;41.27
79136;BME280;68533;51.090;17.216;2023-05-10T08:44:12;100140.41;;;18.47;40.22
79136;BME280;68533;51.090;17.216;2023-05-10T08:46:40;100150.25;;;18.77;39.25
79136;BME280;68533;51.090;17.216;2023-05-10T08:49:13;100151.56;;;18.92;39.52
79136;BME280;68533;51.090;17.216;2023-05-10T08:51:48;100152.59;;;18.54;39.71
79136;BME280;68533;51.090;17.216;2023-05-10T08:54:16;100150.50;;;18.84;39.27
79136;BME280;68533;51.090;17.216;2023-05-10T08:56:42;100147.59;;;18.48;39.93
79136;BME280;68533;51.090;17.216;2023-05-10T08:59:08;100148.09;;;19.68;36.78
79136;BME280;68533;51.090;17.216;2023-05-10T09:01:36;100143.91;;;19.50;37.30
79136;BME280;68533;51.090;17.216;2023-05-10T09:04:02;100152.47;;;20.21;36.56
79136;BME280;68533;51.090;17.216;2023-05-10T09:06:29;100152.50;;;19.08;37.25
79136;BME280;68533;51.090;17.216;2023-05-10T09:08:56;100142.88;;;19.30;38.71
79136;BME280;68533;51.090;17.216;2023-05-10T09:11:25;100145.72;;;19.82;38.80
79136;BME280;68533;51.090;17.216;2023-05-10T09:13:55;100144.00;;;19.77;36.34
79136;BME280;68533;51.090;17.216;2023-05-10T09:16:22;100140.28;;;19.86;35.88
79136;BME280;68533;51.090;17.216;2023-05-10T09:18:49;100142.13;;;19.82;35.68
79136;BME280;68533;51.090;17.216;2023-05-10T09:21:15;100157.31;;;19.96;36.70
79136;BME280;68533;51.090;17.216;2023-05-10T09:23:45;100152.00;;;20.19;36.76
79136;BME280;68533;51.090;17.216;2023-05-10T09:26:12;100152.81;;;19.80;36.94
79136;BME280;68533;51.090;17.216;2023-05-10T09:28:55;100157.25;;;20.48;36.08
79136;BME280;68533;51.090;17.216;2023-05-10T09:31:22;100160.56;;;19.98;37.39
79136;BME280;68533;51.090;17.216;2023-05-10T09:33:50;100163.31;;;19.70;36.54
79136;BME280;68533;51.090;17.216;2023-05-10T09:36:18;100160.53;;;19.46;37.52
79136;BME280;68533;51.090;17.216;2023-05-10T09:38:49;100154.19;;;19.98;37.69
79136;BME280;68533;51.090;17.216;2023-05-10T09:41:22;100160.72;;;19.90;38.42
79136;BME280;68533;51.090;17.216;2023-05-10T09:43:49;100158.53;;;20.11;36.21
79136;BME280;68533;51.090;17.216;2023-05-10T09:46:15;100161.81;;;20.13;35.62
79136;BME280;68533;51.090;17.216;2023-05-10T09:48:45;100163.16;;;19.79;35.50
79136;BME280;68533;51.090;17.216;2023-05-10T09:51:30;100156.56;;;19.71;36.74
79136;BME280;68533;51.090;17.216;2023-05-10T09:54:13;100158.19;;;19.72;38.57
79136;BME280;68533;51.090;17.216;2023-05-10T09:56:40;100144.94;;;19.69;38.69
79136;BME280;68533;51.090;17.216;2023-05-10T09:59:11;100143.09;;;19.49;37.47
79136;BME280;68533;51.090;17.216;2023-05-10T10:01:38;100158.44;;;19.19;36.96
79136;BME280;68533;51.090;17.216;2023-05-10T10:04:08;100146.09;;;20.08;36.55
79136;BME280;68533;51.090;17.216;2023-05-10T10:06:36;100145.13;;;20.57;35.33
79136;BME280;68533;51.090;17.216;2023-05-10T10:09:04;100138.38;;;20.73;35.80
79136;BME280;68533;51.090;17.216;2023-05-10T10:11:30;100128.03;;;19.90;37.77
79136;BME280;68533;51.090;17.216;2023-05-10T10:13:56;100128.38;;;20.72;36.89
79136;BME280;68533;51.090;17.216;2023-05-10T10:16:22;100137.50;;;20.41;36.04
79136;BME280;68533;51.090;17.216;2023-05-10T10:18:52;100126.69;;;21.65;35.37
79136;BME280;68533;51.090;17.216;2023-05-10T10:21:19;100127.28;;;21.08;34.29
79136;BME280;68533;51.090;17.216;2023-05-10T10:23:52;100131.94;;;21.51;34.69
79136;BME280;68533;51.090;17.216;2023-05-10T10:26:18;100119.88;;;20.37;35.09
79136;BME280;68533;51.090;17.216;2023-05-10T10:34:09;100117.06;;;20.53;36.46
79136;BME280;68533;51.090;17.216;2023-05-10T10:36:44;100121.22;;;20.43;35.08
79136;BME280;68533;51.090;17.216;2023-05-10T10:39:11;100134.59;;;20.97;35.50
79136;BME280;68533;51.090;17.216;2023-05-10T10:41:48;100123.97;;;20.87;35.16
79136;BME280;68533;51.090;17.216;2023-05-10T10:44:24;100125.78;;;20.79;35.95
79136;BME280;68533;51.090;17.216;2023-05-10T10:47:07;100119.19;;;20.87;37.05
79136;BME280;68533;51.090;17.216;2023-05-10T10:52:32;100109.31;;;19.14;37.39
79136;BME280;68533;51.090;17.216;2023-05-10T10:55:19;100120.00;;;20.88;35.73
79136;BME280;68533;51.090;17.216;2023-05-10T10:57:56;100114.59;;;20.79;35.38
79136;BME280;68533;51.090;17.216;2023-05-10T11:00:37;100108.09;;;20.91;36.55
79136;BME280;68533;51.090;17.216;2023-05-10T11:03:12;100114.66;;;21.30;35.00
79136;BME280;68533;51.090;17.216;2023-05-10T11:05:46;100103.28;;;20.60;37.92
79136;BME280;68533;51.090;17.216;2023-05-10T11:08:16;100110.53;;;20.92;35.96
79136;BME280;68533;51.090;17.216;2023-05-10T11:13:31;100105.09;;;20.25;35.83
79136;BME280;68533;51.090;17.216;2023-05-10T11:16:09;100101.25;;;21.04;33.62
79136;BME280;68533;51.090;17.216;2023-05-10T11:18:36;100116.38;;;21.35;34.05
79136;BME280;68533;51.090;17.216;2023-05-10T11:21:05;100112.41;;;20.29;37.55
79136;BME280;68533;51.090;17.216;2023-05-10T11:26:08;100111.19;;;21.17;34.97
79136;BME280;68533;51.090;17.216;2023-05-10T11:28:46;100120.25;;;21.30;33.44
79136;BME280;68533;51.090;17.216;2023-05-10T11:31:18;100101.06;;;21.83;35.61
79136;BME280;68533;51.090;17.216;2023-05-10T11:33:52;100093.69;;;21.55;32.24
79136;BME280;68533;51.090;17.216;2023-05-10T11:36:26;100099.78;;;21.10;34.36
79136;BME280;68533;51.090;17.216;2023-05-10T11:38:53;100093.13;;;21.30;33.36
79136;BME280;68533;51.090;17.216;2023-05-10T11:41:21;100124.38;;;21.52;34.12
79136;BME280;68533;51.090;17.216;2023-05-10T11:43:51;100096.84;;;21.54;33.27
79136;BME280;68533;51.090;17.216;2023-05-10T11:46:19;100096.47;;;22.10;35.28
79136;BME280;68533;51.090;17.216;2023-05-10T11:48:53;100094.13;;;21.22;33.28
79136;BME280;68533;51.090;17.216;2023-05-10T11:51:23;100107.22;;;21.53;33.77
79136;BME280;68533;51.090;17.216;2023-05-10T11:53:54;100091.19;;;21.35;33.39
79136;BME280;68533;51.090;17.216;2023-05-10T11:56:21;100085.13;;;20.82;33.77
79136;BME280;68533;51.090;17.216;2023-05-10T11:58:54;100082.03;;;21.34;33.29
79136;BME280;68533;51.090;17.216;2023-05-10T12:01:25;100091.94;;;21.32;34.30
79136;BME280;68533;51.090;17.216;2023-05-10T12:03:53;100076.81;;;21.17;33.20
79136;BME280;68533;51.090;17.216;2023-05-10T12:06:20;100091.19;;;21.35;33.94
79136;BME280;68533;51.090;17.216;2023-05-10T12:08:48;100091.41;;;20.95;35.47
79136;BME280;68533;51.090;17.216;2023-05-10T12:11:18;100098.91;;;20.31;35.65
79136;BME280;68533;51.090;17.216;2023-05-10T12:13:56;100066.44;;;20.86;34.90
79136;BME280;68533;51.090;17.216;2023-05-10T12:16:28;100082.22;;;21.10;33.22
79136;BME280;68533;51.090;17.216;2023-05-10T12:18:58;100091.66;;;21.37;34.59
79136;BME280;68533;51.090;17.216;2023-05-10T12:21:29;100100.41;;;19.85;35.55
79136;BME280;68533;51.090;17.216;2023-05-10T12:24:01;100104.69;;;19.83;34.87
79136;BME280;68533;51.090;17.216;2023-05-10T12:26:28;100093.84;;;20.21;35.54
79136;BME280;68533;51.090;17.216;2023-05-10T12:28:55;100083.03;;;20.79;33.78
79136;BME280;68533;51.090;17.216;2023-05-10T12:31:21;100085.00;;;20.63;33.75
79136;BME280;68533;51.090;17.216;2023-05-10T12:33:53;100082.22;;;21.10;32.86
79136;BME280;68533;51.090;17.216;2023-05-10T12:36:23;100086.34;;;20.69;33.95
79136;BME280;68533;51.090;17.216;2023-05-10T12:38:50;100081.94;;;20.24;34.54
79136;BME280;68533;51.090;17.216;2023-05-10T12:41:18;100101.97;;;19.22;37.24
79136;BME280;68533;51.090;17.216;2023-05-10T12:43:46;100092.22;;;19.28;35.57
79136;BME280;68533;51.090;17.216;2023-05-10T12:46:15;100096.06;;;18.99;36.00
79136;BME280;68533;51.090;17.216;2023-05-10T12:48:43;100089.22;;;19.33;36.44
79136;BME280;68533;51.090;17.216;2023-05-10T12:51:10;100078.16;;;19.36;34.84
79136;BME280;68533;51.090;17.216;2023-05-10T12:53:42;100087.44;;;20.64;34.11
79136;BME280;68533;51.090;17.216;2023-05-10T12:56:26;100095.06;;;20.36;32.62
79136;BME280;68533;51.090;17.216;2023-05-10T12:58:58;100088.69;;;20.07;35.29
79136;BME280;68533;51.090;17.216;2023-05-10T13:01:25;100094.22;;;19.92;34.82
79136;BME280;68533;51.090;17.216;2023-05-10T13:03:54;100084.00;;;19.07;35.25
79136;BME280;68533;51.090;17.216;2023-05-10T13:06:20;100083.31;;;19.74;34.99
79136;BME280;68533;51.090;17.216;2023-05-10T13:08:48;100069.84;;;20.04;35.12
79136;BME280;68533;51.090;17.216;2023-05-10T13:11:14;100077.28;;;20.72;34.40
79136;BME280;68533;51.090;17.216;2023-05-10T13:13:45;100088.22;;;19.77;33.29
79136;BME280;68533;51.090;17.216;2023-05-10T13:16:11;100083.44;;;19.02;34.94
79136;BME280;68533;51.090;17.216;2023-05-10T13:18:37;100083.66;;;18.72;35.88
79136;BME280;68533;51.090;17.216;2023-05-10T13:21:06;100078.69;;;20.34;33.82
79136;BME280;68533;51.090;17.216;2023-05-10T13:23:34;100062.28;;;20.05;31.38
79136;BME280;68533;51.090;17.216;2023-05-10T13:26:00;100068.34;;;20.07;31.63
79136;BME280;68533;51.090;17.216;2023-05-10T13:28:26;100072.13;;;20.58;32.26